sensor_id;sensor_type;location;lat;lon;timestamp;temperature;humidity
75387;DHT22;63966;47.914;22.266;2023-04-06T00:00:26;1.04;61.67
75387;DHT22;63966;47.914;22.266;2023-04-06T00:03:30;1.07;61.69
75387;DHT22;63966;47.914;22.266;2023-04-06T00:06:34;1.08;62.09
75387;DHT22;63966;47.914;22.266;2023-04-06T00:09:37;0.98;62.31
75387;DHT22;63966;47.914;22.266;2023-04-06T00:12:41;0.98;62.45
75387;DHT22;63966;47.914;22.266;2023-04-06T00:15:44;0.94;62.82
75387;DHT22;63966;47.914;22.266;2023-04-06T00:18:48;0.83;63.42
75387;DHT22;63966;47.914;22.266;2023-04-06T00:21:52;0.92;63.13
75387;DHT22;63966;47.914;22.266;2023-04-06T00:24:55;0.85;63.39
75387;DHT22;63966;47.914;22.266;2023-04-06T00:27:59;0.84;63.54
75387;DHT22;63966;47.914;22.266;2023-04-06T00:31:02;0.81;64.02
75387;DHT22;63966;47.914;22.266;2023-04-06T00:34:06;0.81;63.76
75387;DHT22;63966;47.914;22.266;2023-04-06T00:37:11;0.81;64.01
75387;DHT22;63966;47.914;22.266;2023-04-06T00:40:14;0.78;63.96
75387;DHT22;63966;47.914;22.266;2023-04-06T00:43:18;0.81;63.51
75387;DHT22;63966;47.914;22.266;2023-04-06T00:46:22;0.84;63.76
75387;DHT22;63966;47.914;22.266;2023-04-06T00:49:26;0.81;64.01
75387;DHT22;63966;47.914;22.266;2023-04-06T00:52:30;0.87;63.65
75387;DHT22;63966;47.914;22.266;2023-04-06T00:55:33;0.84;63.73
75387;DHT22;63966;47.914;22.266;2023-04-06T00:58:39;0.95;63.11
75387;DHT22;63966;47.914;22.266;2023-04-06T01:01:44;1.01;63.10
75387;DHT22;63966;47.914;22.266;2023-04-06T01:05:04;1.02;63.10
75387;DHT22;63966;47.914;22.266;2023-04-06T01:08:19;1.02;63.08
75387;DHT22;63966;47.914;22.266;2023-04-06T01:11:25;0.92;63.51
75387;DHT22;63966;47.914;22.266;2023-04-06T01:14:29;0.95;63.87
75387;DHT22;63966;47.914;22.266;2023-04-06T01:17:35;0.99;63.39
75387;DHT22;63966;47.914;22.266;2023-04-06T01:20:45;0.98;63.55
75387;DHT22;63966;47.914;22.266;2023-04-06T01:23:51;0.99;63.42
75387;DHT22;63966;47.914;22.266;2023-04-06T01:27:02;0.95;63.92
75387;DHT22;63966;47.914;22.266;2023-04-06T01:30:19;0.99;63.81
75387;DHT22;63966;47.914;22.266;2023-04-06T01:33:36;1.01;63.89
75387;DHT22;63966;47.914;22.266;2023-04-06T01:36:43;1.02;64.08
75387;DHT22;63966;47.914;22.266;2023-04-06T01:39:59;1.04;64.12
75387;DHT22;63966;47.914;22.266;2023-04-06T01:43:15;1.08;64.08
75387;DHT22;63966;47.914;22.266;2023-04-06T01:46:37;1.08;64.19
75387;DHT22;63966;47.914;22.266;2023-04-06T01:49:42;1.08;63.94
75387;DHT22;63966;47.914;22.266;2023-04-06T01:52:46;1.05;64.68
75387;DHT22;63966;47.914;22.266;2023-04-06T01:55:50;1.08;64.68
75387;DHT22;63966;47.914;22.266;2023-04-06T01:59:01;1.05;64.44
75387;DHT22;63966;47.914;22.266;2023-04-06T02:02:12;1.09;64.68
75387;DHT22;63966;47.914;22.266;2023-04-06T02:05:21;1.11;64.16
75387;DHT22;63966;47.914;22.266;2023-04-06T02:08:27;1.17;64.03
75387;DHT22;63966;47.914;22.266;2023-04-06T02:11:30;1.18;63.85
75387;DHT22;63966;47.914;22.266;2023-04-06T02:14:34;1.12;63.86
75387;DHT22;63966;47.914;22.266;2023-04-06T02:17:38;1.15;63.95
75387;DHT22;63966;47.914;22.266;2023-04-06T02:20:41;1.21;63.31
75387;DHT22;63966;47.914;22.266;2023-04-06T02:23:46;1.18;63.64
75387;DHT22;63966;47.914;22.266;2023-04-06T02:26:50;1.29;62.82
75387;DHT22;63966;47.914;22.266;2023-04-06T02:29:53;1.29;62.87
75387;DHT22;63966;47.914;22.266;2023-04-06T02:32:57;1.31;62.88
75387;DHT22;63966;47.914;22.266;2023-04-06T02:36:01;1.31;62.21
75387;DHT22;63966;47.914;22.266;2023-04-06T02:39:05;1.28;62.86
75387;DHT22;63966;47.914;22.266;2023-04-06T02:42:09;1.40;62.01
75387;DHT22;63966;47.914;22.266;2023-04-06T02:45:13;1.35;62.53
75387;DHT22;63966;47.914;22.266;2023-04-06T02:48:20;1.43;62.17
75387;DHT22;63966;47.914;22.266;2023-04-06T02:51:23;1.39;62.00
75387;DHT22;63966;47.914;22.266;2023-04-06T02:54:30;1.45;62.18
75387;DHT22;63966;47.914;22.266;2023-04-06T02:57:35;1.40;62.43
75387;DHT22;63966;47.914;22.266;2023-04-06T03:00:38;1.40;62.23
75387;DHT22;63966;47.914;22.266;2023-04-06T03:03:42;1.38;62.67
75387;DHT22;63966;47.914;22.266;2023-04-06T03:06:55;1.42;63.10
75387;DHT22;63966;47.914;22.266;2023-04-06T03:10:09;1.35;64.48
75387;DHT22;63966;47.914;22.266;2023-04-06T03:13:14;1.18;65.92
75387;DHT22;63966;47.914;22.266;2023-04-06T03:16:29;1.12;68.15
75387;DHT22;63966;47.914;22.266;2023-04-06T03:19:33;0.85;71.33
75387;DHT22;63966;47.914;22.266;2023-04-06T03:22:38;0.66;74.58
75387;DHT22;63966;47.914;22.266;2023-04-06T03:25:43;0.56;76.39
75387;DHT22;63966;47.914;22.266;2023-04-06T03:28:51;0.46;77.63
75387;DHT22;63966;47.914;22.266;2023-04-06T03:31:59;0.46;78.16
75387;DHT22;63966;47.914;22.266;2023-04-06T03:35:13;0.46;77.23
75387;DHT22;63966;47.914;22.266;2023-04-06T03:38:16;0.42;77.71
75387;DHT22;63966;47.914;22.266;2023-04-06T03:41:20;0.38;78.62
75387;DHT22;63966;47.914;22.266;2023-04-06T03:44:31;0.39;80.03
75387;DHT22;63966;47.914;22.266;2023-04-06T03:47:35;0.28;80.72
75387;DHT22;63966;47.914;22.266;2023-04-06T03:50:41;0.28;81.76
75387;DHT22;63966;47.914;22.266;2023-04-06T03:53:45;0.16;82.48
75387;DHT22;63966;47.914;22.266;2023-04-06T03:56:48;0.18;82.72
75387;DHT22;63966;47.914;22.266;2023-04-06T03:59:52;0.21;83.33
75387;DHT22;63966;47.914;22.266;2023-04-06T04:02:56;0.25;83.63
75387;DHT22;63966;47.914;22.266;2023-04-06T04:05:59;0.29;83.64
75387;DHT22;63966;47.914;22.266;2023-04-06T04:09:03;0.28;83.49
75387;DHT22;63966;47.914;22.266;2023-04-06T04:12:07;0.25;83.99
75387;DHT22;63966;47.914;22.266;2023-04-06T04:15:10;0.26;84.03
75387;DHT22;63966;47.914;22.266;2023-04-06T04:18:14;0.30;84.54
75387;DHT22;63966;47.914;22.266;2023-04-06T04:21:18;0.36;85.09
75387;DHT22;63966;47.914;22.266;2023-04-06T04:24:21;0.30;85.11
75387;DHT22;63966;47.914;22.266;2023-04-06T04:27:25;0.29;85.63
75387;DHT22;63966;47.914;22.266;2023-04-06T04:30:29;0.23;85.86
75387;DHT22;63966;47.914;22.266;2023-04-06T04:33:33;0.19;86.23
75387;DHT22;63966;47.914;22.266;2023-04-06T04:36:39;0.21;86.55
75387;DHT22;63966;47.914;22.266;2023-04-06T04:39:49;0.09;87.02
75387;DHT22;63966;47.914;22.266;2023-04-06T04:42:53;0.06;87.37
75387;DHT22;63966;47.914;22.266;2023-04-06T04:46:05;0.05;87.11
75387;DHT22;63966;47.914;22.266;2023-04-06T04:49:16;-0.01;87.89
75387;DHT22;63966;47.914;22.266;2023-04-06T04:52:20;-0.06;88.70
75387;DHT22;63966;47.914;22.266;2023-04-06T04:55:43;-0.02;88.75
75387;DHT22;63966;47.914;22.266;2023-04-06T04:58:49;0.01;88.98
75387;DHT22;63966;47.914;22.266;2023-04-06T05:01:52;0.02;88.41
75387;DHT22;63966;47.914;22.266;2023-04-06T05:05:04;-0.03;88.77
75387;DHT22;63966;47.914;22.266;2023-04-06T05:08:08;0.03;88.83
75387;DHT22;63966;47.914;22.266;2023-04-06T05:11:21;0.15;88.75
75387;DHT22;63966;47.914;22.266;2023-04-06T05:14:31;0.06;88.76
75387;DHT22;63966;47.914;22.266;2023-04-06T05:17:38;0.12;88.80
75387;DHT22;63966;47.914;22.266;2023-04-06T05:20:43;0.13;89.01
75387;DHT22;63966;47.914;22.266;2023-04-06T05:23:47;0.11;89.00
75387;DHT22;63966;47.914;22.266;2023-04-06T05:26:51;0.05;89.29
75387;DHT22;63966;47.914;22.266;2023-04-06T05:29:58;0.05;89.46
75387;DHT22;63966;47.914;22.266;2023-04-06T05:33:04;0.01;89.34
75387;DHT22;63966;47.914;22.266;2023-04-06T05:36:21;0.12;89.52
75387;DHT22;63966;47.914;22.266;2023-04-06T05:39:25;0.08;89.57
75387;DHT22;63966;47.914;22.266;2023-04-06T05:42:40;0.15;89.01
75387;DHT22;63966;47.914;22.266;2023-04-06T05:45:45;0.08;88.72
75387;DHT22;63966;47.914;22.266;2023-04-06T05:48:48;0.01;89.56
75387;DHT22;63966;47.914;22.266;2023-04-06T05:51:55;-0.10;89.85
75387;DHT22;63966;47.914;22.266;2023-04-06T05:54:59;-0.02;89.87
75387;DHT22;63966;47.914;22.266;2023-04-06T05:58:03;0.12;89.69
75387;DHT22;63966;47.914;22.266;2023-04-06T06:01:06;0.19;89.53
75387;DHT22;63966;47.914;22.266;2023-04-06T06:04:15;0.32;88.91
75387;DHT22;63966;47.914;22.266;2023-04-06T06:07:20;0.30;88.22
75387;DHT22;63966;47.914;22.266;2023-04-06T06:10:33;0.30;88.00
75387;DHT22;63966;47.914;22.266;2023-04-06T06:13:36;0.35;88.14
75387;DHT22;63966;47.914;22.266;2023-04-06T06:16:40;0.35;87.95
75387;DHT22;63966;47.914;22.266;2023-04-06T06:19:47;0.38;87.78
75387;DHT22;63966;47.914;22.266;2023-04-06T06:22:52;0.35;87.25
75387;DHT22;63966;47.914;22.266;2023-04-06T06:25:58;0.40;87.58
75387;DHT22;63966;47.914;22.266;2023-04-06T06:29:02;0.52;87.12
75387;DHT22;63966;47.914;22.266;2023-04-06T06:32:11;0.42;86.79
75387;DHT22;63966;47.914;22.266;2023-04-06T06:35:16;0.56;87.32
75387;DHT22;63966;47.914;22.266;2023-04-06T06:38:19;0.49;87.03
75387;DHT22;63966;47.914;22.266;2023-04-06T06:41:26;0.61;86.84
75387;DHT22;63966;47.914;22.266;2023-04-06T06:44:30;0.49;87.17
75387;DHT22;63966;47.914;22.266;2023-04-06T06:47:33;0.60;87.33
75387;DHT22;63966;47.914;22.266;2023-04-06T06:50:37;0.38;87.13
75387;DHT22;63966;47.914;22.266;2023-04-06T06:53:41;0.45;88.47
75387;DHT22;63966;47.914;22.266;2023-04-06T06:56:45;0.48;88.44
75387;DHT22;63966;47.914;22.266;2023-04-06T06:59:49;0.49;87.66
75387;DHT22;63966;47.914;22.266;2023-04-06T07:02:54;0.46;88.40
75387;DHT22;63966;47.914;22.266;2023-04-06T07:05:58;0.39;88.44
75387;DHT22;63966;47.914;22.266;2023-04-06T07:09:03;0.36;87.93
75387;DHT22;63966;47.914;22.266;2023-04-06T07:12:06;0.45;88.04
75387;DHT22;63966;47.914;22.266;2023-04-06T07:15:10;0.45;88.65
75387;DHT22;63966;47.914;22.266;2023-04-06T07:18:14;0.53;88.09
75387;DHT22;63966;47.914;22.266;2023-04-06T07:21:17;0.38;88.29
75387;DHT22;63966;47.914;22.266;2023-04-06T07:24:21;0.39;89.07
75387;DHT22;63966;47.914;22.266;2023-04-06T07:27:24;0.46;89.20
75387;DHT22;63966;47.914;22.266;2023-04-06T07:30:28;0.64;88.61
75387;DHT22;63966;47.914;22.266;2023-04-06T07:33:35;0.64;88.04
75387;DHT22;63966;47.914;22.266;2023-04-06T07:36:38;0.49;88.60
75387;DHT22;63966;47.914;22.266;2023-04-06T07:39:42;0.49;88.55
75387;DHT22;63966;47.914;22.266;2023-04-06T07:42:47;0.43;89.56
75387;DHT22;63966;47.914;22.266;2023-04-06T07:45:50;0.45;88.74
75387;DHT22;63966;47.914;22.266;2023-04-06T07:48:57;0.64;88.46
75387;DHT22;63966;47.914;22.266;2023-04-06T07:52:01;0.60;88.68
75387;DHT22;63966;47.914;22.266;2023-04-06T07:55:06;0.76;88.14
75387;DHT22;63966;47.914;22.266;2023-04-06T07:58:10;0.90;87.93
75387;DHT22;63966;47.914;22.266;2023-04-06T08:01:14;0.90;87.29
75387;DHT22;63966;47.914;22.266;2023-04-06T08:04:17;0.94;86.43
75387;DHT22;63966;47.914;22.266;2023-04-06T08:07:21;0.90;87.57
75387;DHT22;63966;47.914;22.266;2023-04-06T08:10:25;1.08;86.67
75387;DHT22;63966;47.914;22.266;2023-04-06T08:13:28;0.91;86.79
75387;DHT22;63966;47.914;22.266;2023-04-06T08:16:32;0.90;87.10
75387;DHT22;63966;47.914;22.266;2023-04-06T08:19:36;0.80;88.12
75387;DHT22;63966;47.914;22.266;2023-04-06T08:22:40;0.80;88.54
75387;DHT22;63966;47.914;22.266;2023-04-06T08:25:44;1.02;87.86
75387;DHT22;63966;47.914;22.266;2023-04-06T08:28:48;0.97;86.42
75387;DHT22;63966;47.914;22.266;2023-04-06T08:31:51;1.12;86.47
75387;DHT22;63966;47.914;22.266;2023-04-06T08:34:55;0.98;85.45
75387;DHT22;63966;47.914;22.266;2023-04-06T08:37:58;1.18;86.28
75387;DHT22;63966;47.914;22.266;2023-04-06T08:41:10;1.49;84.37
75387;DHT22;63966;47.914;22.266;2023-04-06T08:44:14;1.62;84.62
75387;DHT22;63966;47.914;22.266;2023-04-06T08:47:18;1.46;84.19
75387;DHT22;63966;47.914;22.266;2023-04-06T08:50:26;1.60;83.34
75387;DHT22;63966;47.914;22.266;2023-04-06T08:53:31;1.84;82.17
75387;DHT22;63966;47.914;22.266;2023-04-06T08:56:38;1.66;82.44
75387;DHT22;63966;47.914;22.266;2023-04-06T08:59:42;1.64;82.53
75387;DHT22;63966;47.914;22.266;2023-04-06T09:02:47;1.73;82.85
75387;DHT22;63966;47.914;22.266;2023-04-06T09:05:52;1.59;82.50
75387;DHT22;63966;47.914;22.266;2023-04-06T09:08:56;1.63;83.51
75387;DHT22;63966;47.914;22.266;2023-04-06T09:12:01;1.55;82.59
75387;DHT22;63966;47.914;22.266;2023-04-06T09:15:19;1.80;82.22
75387;DHT22;63966;47.914;22.266;2023-04-06T09:18:30;1.76;82.94
75387;DHT22;63966;47.914;22.266;2023-04-06T09:21:34;1.98;82.36
75387;DHT22;63966;47.914;22.266;2023-04-06T09:24:47;2.18;82.67
75387;DHT22;63966;47.914;22.266;2023-04-06T09:28:03;2.48;80.74
75387;DHT22;63966;47.914;22.266;2023-04-06T09:31:06;2.24;79.79
75387;DHT22;63966;47.914;22.266;2023-04-06T09:34:21;2.38;79.58
75387;DHT22;63966;47.914;22.266;2023-04-06T09:37:28;2.46;78.61
75387;DHT22;63966;47.914;22.266;2023-04-06T09:40:31;2.53;79.15
75387;DHT22;63966;47.914;22.266;2023-04-06T09:43:35;2.26;79.55
75387;DHT22;63966;47.914;22.266;2023-04-06T09:46:40;2.34;78.81
75387;DHT22;63966;47.914;22.266;2023-04-06T09:50:02;2.34;79.58
75387;DHT22;63966;47.914;22.266;2023-04-06T09:53:07;2.59;80.56
75387;DHT22;63966;47.914;22.266;2023-04-06T09:56:12;2.52;80.43
75387;DHT22;63966;47.914;22.266;2023-04-06T10:02:39;2.01;80.99
75387;DHT22;63966;47.914;22.266;2023-04-06T10:05:57;2.08;81.30
75387;DHT22;63966;47.914;22.266;2023-04-06T10:09:07;2.15;81.71
75387;DHT22;63966;47.914;22.266;2023-04-06T10:12:12;2.22;81.48
75387;DHT22;63966;47.914;22.266;2023-04-06T10:15:16;2.43;80.90
75387;DHT22;63966;47.914;22.266;2023-04-06T10:18:24;2.24;81.98
75387;DHT22;63966;47.914;22.266;2023-04-06T10:21:29;2.53;79.70
75387;DHT22;63966;47.914;22.266;2023-04-06T10:24:35;2.34;79.74
75387;DHT22;63966;47.914;22.266;2023-04-06T10:27:39;2.43;79.65
75387;DHT22;63966;47.914;22.266;2023-04-06T10:30:43;2.75;77.90
75387;DHT22;63966;47.914;22.266;2023-04-06T10:34:01;2.56;77.79
75387;DHT22;63966;47.914;22.266;2023-04-06T10:37:17;2.56;78.45
75387;DHT22;63966;47.914;22.266;2023-04-06T10:40:26;2.96;77.78
75387;DHT22;63966;47.914;22.266;2023-04-06T10:43:34;2.70;78.93
75387;DHT22;63966;47.914;22.266;2023-04-06T10:46:40;2.89;77.99
75387;DHT22;63966;47.914;22.266;2023-04-06T10:49:55;2.82;78.61
75387;DHT22;63966;47.914;22.266;2023-04-06T10:53:00;3.21;76.60
75387;DHT22;63966;47.914;22.266;2023-04-06T10:56:04;2.89;77.15
75387;DHT22;63966;47.914;22.266;2023-04-06T10:59:12;3.08;77.65
75387;DHT22;63966;47.914;22.266;2023-04-06T11:02:22;2.89;76.86
75387;DHT22;63966;47.914;22.266;2023-04-06T11:05:26;2.73;78.92
75387;DHT22;63966;47.914;22.266;2023-04-06T11:08:31;2.66;77.17
75387;DHT22;63966;47.914;22.266;2023-04-06T11:11:39;2.72;77.84
75387;DHT22;63966;47.914;22.266;2023-04-06T11:14:59;2.76;78.07
75387;DHT22;63966;47.914;22.266;2023-04-06T11:18:07;3.42;75.54
75387;DHT22;63966;47.914;22.266;2023-04-06T11:21:14;3.90;74.75
75387;DHT22;63966;47.914;22.266;2023-04-06T11:24:19;3.90;74.12
75387;DHT22;63966;47.914;22.266;2023-04-06T11:27:23;4.04;74.22
75387;DHT22;63966;47.914;22.266;2023-04-06T11:30:28;4.42;72.67
75387;DHT22;63966;47.914;22.266;2023-04-06T11:33:39;4.27;71.64
75387;DHT22;63966;47.914;22.266;2023-04-06T11:36:44;4.44;71.58
75387;DHT22;63966;47.914;22.266;2023-04-06T11:39:50;4.58;70.39
75387;DHT22;63966;47.914;22.266;2023-04-06T11:42:57;4.58;71.13
75387;DHT22;63966;47.914;22.266;2023-04-06T11:46:02;4.10;70.98
75387;DHT22;63966;47.914;22.266;2023-04-06T11:49:06;4.13;71.89
75387;DHT22;63966;47.914;22.266;2023-04-06T11:52:17;3.46;72.69
75387;DHT22;63966;47.914;22.266;2023-04-06T11:55:21;3.80;72.24
75387;DHT22;63966;47.914;22.266;2023-04-06T11:58:25;3.41;72.03
75387;DHT22;63966;47.914;22.266;2023-04-06T12:01:30;3.63;72.49
75387;DHT22;63966;47.914;22.266;2023-04-06T12:04:39;3.66;72.36
75387;DHT22;63966;47.914;22.266;2023-04-06T12:07:43;3.55;72.64
75387;DHT22;63966;47.914;22.266;2023-04-06T12:10:46;3.52;71.10
75387;DHT22;63966;47.914;22.266;2023-04-06T12:13:49;3.89;71.68
75387;DHT22;63966;47.914;22.266;2023-04-06T12:16:53;4.04;70.94
75387;DHT22;63966;47.914;22.266;2023-04-06T12:19:57;4.44;69.97
75387;DHT22;63966;47.914;22.266;2023-04-06T12:23:07;4.44;69.10
75387;DHT22;63966;47.914;22.266;2023-04-06T12:26:11;4.31;68.74
75387;DHT22;63966;47.914;22.266;2023-04-06T12:29:15;4.41;67.44
75387;DHT22;63966;47.914;22.266;2023-04-06T12:32:19;4.31;66.78
75387;DHT22;63966;47.914;22.266;2023-04-06T12:35:22;3.98;67.53
75387;DHT22;63966;47.914;22.266;2023-04-06T12:38:26;4.20;67.82
75387;DHT22;63966;47.914;22.266;2023-04-06T12:41:30;3.83;67.19
75387;DHT22;63966;47.914;22.266;2023-04-06T12:44:33;3.96;67.58
75387;DHT22;63966;47.914;22.266;2023-04-06T12:47:38;4.38;67.62
75387;DHT22;63966;47.914;22.266;2023-04-06T12:50:41;4.58;68.54
75387;DHT22;63966;47.914;22.266;2023-04-06T12:53:45;4.66;67.43
75387;DHT22;63966;47.914;22.266;2023-04-06T12:56:48;4.52;67.19
75387;DHT22;63966;47.914;22.266;2023-04-06T12:59:51;4.37;66.55
75387;DHT22;63966;47.914;22.266;2023-04-06T13:02:56;4.61;67.16
75387;DHT22;63966;47.914;22.266;2023-04-06T13:06:01;4.92;64.93
75387;DHT22;63966;47.914;22.266;2023-04-06T13:09:04;4.90;65.70
75387;DHT22;63966;47.914;22.266;2023-04-06T13:12:08;4.61;66.11
75387;DHT22;63966;47.914;22.266;2023-04-06T13:15:12;4.31;65.98
75387;DHT22;63966;47.914;22.266;2023-04-06T13:18:15;4.30;65.70
75387;DHT22;63966;47.914;22.266;2023-04-06T13:21:19;4.73;65.51
75387;DHT22;63966;47.914;22.266;2023-04-06T13:24:24;4.99;64.99
75387;DHT22;63966;47.914;22.266;2023-04-06T13:27:27;4.71;64.82
75387;DHT22;63966;47.914;22.266;2023-04-06T13:30:31;4.44;65.48
75387;DHT22;63966;47.914;22.266;2023-04-06T13:33:35;4.42;65.96
75387;DHT22;63966;47.914;22.266;2023-04-06T13:36:38;4.33;65.66
75387;DHT22;63966;47.914;22.266;2023-04-06T13:39:44;4.27;66.94
75387;DHT22;63966;47.914;22.266;2023-04-06T13:42:48;4.48;66.13
75387;DHT22;63966;47.914;22.266;2023-04-06T13:45:53;4.49;64.90
75387;DHT22;63966;47.914;22.266;2023-04-06T13:49:01;4.68;65.10
75387;DHT22;63966;47.914;22.266;2023-04-06T13:52:05;4.40;65.49
75387;DHT22;63966;47.914;22.266;2023-04-06T13:55:08;4.30;65.52
75387;DHT22;63966;47.914;22.266;2023-04-06T13:58:12;4.11;67.09
75387;DHT22;63966;47.914;22.266;2023-04-06T14:01:15;4.25;66.72
75387;DHT22;63966;47.914;22.266;2023-04-06T14:04:19;4.14;66.95
75387;DHT22;63966;47.914;22.266;2023-04-06T14:07:22;4.13;66.93
75387;DHT22;63966;47.914;22.266;2023-04-06T14:10:26;3.94;67.57
75387;DHT22;63966;47.914;22.266;2023-04-06T14:13:31;3.86;69.15
75387;DHT22;63966;47.914;22.266;2023-04-06T14:16:34;3.86;69.23
75387;DHT22;63966;47.914;22.266;2023-04-06T14:19:38;3.75;68.72
75387;DHT22;63966;47.914;22.266;2023-04-06T14:22:42;3.66;70.09
75387;DHT22;63966;47.914;22.266;2023-04-06T14:25:46;3.42;70.47
75387;DHT22;63966;47.914;22.266;2023-04-06T14:28:50;3.29;71.08
75387;DHT22;63966;47.914;22.266;2023-04-06T14:31:53;3.24;71.50
75387;DHT22;63966;47.914;22.266;2023-04-06T14:35:03;3.08;72.47
75387;DHT22;63966;47.914;22.266;2023-04-06T14:38:09;2.90;73.04
75387;DHT22;63966;47.914;22.266;2023-04-06T14:41:19;2.83;73.96
75387;DHT22;63966;47.914;22.266;2023-04-06T14:44:23;2.66;75.71
75387;DHT22;63966;47.914;22.266;2023-04-06T14:47:26;2.54;76.64
75387;DHT22;63966;47.914;22.266;2023-04-06T14:50:32;2.35;78.42
75387;DHT22;63966;47.914;22.266;2023-04-06T14:53:36;2.29;79.63
75387;DHT22;63966;47.914;22.266;2023-04-06T14:56:39;2.24;79.36
75387;DHT22;63966;47.914;22.266;2023-04-06T14:59:43;2.34;79.37
75387;DHT22;63966;47.914;22.266;2023-04-06T15:02:47;2.56;79.16
75387;DHT22;63966;47.914;22.266;2023-04-06T15:05:51;2.36;80.02
75387;DHT22;63966;47.914;22.266;2023-04-06T15:08:54;2.14;82.10
75387;DHT22;63966;47.914;22.266;2023-04-06T15:11:58;2.03;84.03
75387;DHT22;63966;47.914;22.266;2023-04-06T15:15:02;1.87;85.27
75387;DHT22;63966;47.914;22.266;2023-04-06T15:18:06;1.80;86.02
75387;DHT22;63966;47.914;22.266;2023-04-06T15:21:10;1.94;86.10
75387;DHT22;63966;47.914;22.266;2023-04-06T15:24:13;1.94;85.96
75387;DHT22;63966;47.914;22.266;2023-04-06T15:27:17;1.86;86.42
75387;DHT22;63966;47.914;22.266;2023-04-06T15:30:21;1.83;87.29
75387;DHT22;63966;47.914;22.266;2023-04-06T15:33:24;1.86;87.17
75387;DHT22;63966;47.914;22.266;2023-04-06T15:36:29;1.91;86.65
75387;DHT22;63966;47.914;22.266;2023-04-06T15:39:33;1.91;86.42
75387;DHT22;63966;47.914;22.266;2023-04-06T15:42:36;2.13;84.83
75387;DHT22;63966;47.914;22.266;2023-04-06T15:45:40;2.25;83.43
75387;DHT22;63966;47.914;22.266;2023-04-06T15:48:44;2.14;82.88
75387;DHT22;63966;47.914;22.266;2023-04-06T15:51:49;2.00;83.45
75387;DHT22;63966;47.914;22.266;2023-04-06T15:54:54;1.97;84.02
75387;DHT22;63966;47.914;22.266;2023-04-06T15:57:57;2.05;83.95
75387;DHT22;63966;47.914;22.266;2023-04-06T16:01:10;1.98;83.93
75387;DHT22;63966;47.914;22.266;2023-04-06T16:04:15;2.00;82.89
75387;DHT22;63966;47.914;22.266;2023-04-06T16:07:18;1.98;83.36
75387;DHT22;63966;47.914;22.266;2023-04-06T16:10:22;1.97;83.13
75387;DHT22;63966;47.914;22.266;2023-04-06T16:13:25;1.98;83.32
75387;DHT22;63966;47.914;22.266;2023-04-06T16:16:29;1.95;83.16
75387;DHT22;63966;47.914;22.266;2023-04-06T16:19:32;1.94;83.82
75387;DHT22;63966;47.914;22.266;2023-04-06T16:22:36;2.04;83.67
75387;DHT22;63966;47.914;22.266;2023-04-06T16:25:39;1.95;84.23
75387;DHT22;63966;47.914;22.266;2023-04-06T16:28:44;2.01;84.03
75387;DHT22;63966;47.914;22.266;2023-04-06T16:31:49;1.95;83.72
75387;DHT22;63966;47.914;22.266;2023-04-06T16:34:52;1.90;84.37
75387;DHT22;63966;47.914;22.266;2023-04-06T16:37:56;1.91;84.54
75387;DHT22;63966;47.914;22.266;2023-04-06T16:41:00;2.00;83.65
75387;DHT22;63966;47.914;22.266;2023-04-06T16:44:04;1.93;84.09
75387;DHT22;63966;47.914;22.266;2023-04-06T16:47:07;2.03;83.17
75387;DHT22;63966;47.914;22.266;2023-04-06T16:50:11;1.97;83.61
75387;DHT22;63966;47.914;22.266;2023-04-06T16:53:15;1.90;83.47
75387;DHT22;63966;47.914;22.266;2023-04-06T16:56:19;1.88;83.14
75387;DHT22;63966;47.914;22.266;2023-04-06T16:59:23;1.88;83.31
75387;DHT22;63966;47.914;22.266;2023-04-06T17:02:37;1.93;82.79
75387;DHT22;63966;47.914;22.266;2023-04-06T17:05:40;1.84;83.28
75387;DHT22;63966;47.914;22.266;2023-04-06T17:08:45;1.78;84.18
75387;DHT22;63966;47.914;22.266;2023-04-06T17:11:49;1.67;85.44
75387;DHT22;63966;47.914;22.266;2023-04-06T17:14:53;1.62;86.42
75387;DHT22;63966;47.914;22.266;2023-04-06T17:17:56;1.47;87.40
75387;DHT22;63966;47.914;22.266;2023-04-06T17:21:08;1.43;88.42
75387;DHT22;63966;47.914;22.266;2023-04-06T17:24:16;1.35;89.25
75387;DHT22;63966;47.914;22.266;2023-04-06T17:27:20;1.24;89.82
75387;DHT22;63966;47.914;22.266;2023-04-06T17:30:25;1.25;90.31
75387;DHT22;63966;47.914;22.266;2023-04-06T17:33:29;1.21;90.59
75387;DHT22;63966;47.914;22.266;2023-04-06T17:36:34;1.15;91.01
75387;DHT22;63966;47.914;22.266;2023-04-06T17:39:37;1.12;91.40
75387;DHT22;63966;47.914;22.266;2023-04-06T17:42:41;1.18;90.95
75387;DHT22;63966;47.914;22.266;2023-04-06T17:45:48;1.17;91.03
75387;DHT22;63966;47.914;22.266;2023-04-06T17:48:53;1.09;91.32
75387;DHT22;63966;47.914;22.266;2023-04-06T17:51:56;1.04;91.61
75387;DHT22;63966;47.914;22.266;2023-04-06T17:55:00;1.09;91.34
75387;DHT22;63966;47.914;22.266;2023-04-06T17:58:04;1.11;91.45
75387;DHT22;63966;47.914;22.266;2023-04-06T18:01:08;1.15;91.33
75387;DHT22;63966;47.914;22.266;2023-04-06T18:04:15;1.08;91.38
75387;DHT22;63966;47.914;22.266;2023-04-06T18:07:18;1.05;91.78
75387;DHT22;63966;47.914;22.266;2023-04-06T18:10:22;0.97;92.15
75387;DHT22;63966;47.914;22.266;2023-04-06T18:13:26;1.02;92.14
75387;DHT22;63966;47.914;22.266;2023-04-06T18:16:29;1.01;92.06
75387;DHT22;63966;47.914;22.266;2023-04-06T18:19:33;1.07;91.96
75387;DHT22;63966;47.914;22.266;2023-04-06T18:22:36;1.09;91.54
75387;DHT22;63966;47.914;22.266;2023-04-06T18:25:40;1.08;91.73
75387;DHT22;63966;47.914;22.266;2023-04-06T18:28:44;1.08;91.72
75387;DHT22;63966;47.914;22.266;2023-04-06T18:31:48;1.12;91.79
75387;DHT22;63966;47.914;22.266;2023-04-06T18:34:52;1.15;91.62
75387;DHT22;63966;47.914;22.266;2023-04-06T18:37:59;1.18;91.32
75387;DHT22;63966;47.914;22.266;2023-04-06T18:41:03;1.12;91.59
75387;DHT22;63966;47.914;22.266;2023-04-06T18:44:07;1.18;91.65
75387;DHT22;63966;47.914;22.266;2023-04-06T18:47:10;1.19;91.33
75387;DHT22;63966;47.914;22.266;2023-04-06T18:50:14;1.15;91.33
75387;DHT22;63966;47.914;22.266;2023-04-06T18:53:17;1.11;91.77
75387;DHT22;63966;47.914;22.266;2023-04-06T18:56:21;1.15;91.89
75387;DHT22;63966;47.914;22.266;2023-04-06T18:59:25;1.09;91.82
75387;DHT22;63966;47.914;22.266;2023-04-06T19:02:32;1.18;91.59
75387;DHT22;63966;47.914;22.266;2023-04-06T19:05:38;1.21;91.58
75387;DHT22;63966;47.914;22.266;2023-04-06T19:08:42;1.14;91.65
75387;DHT22;63966;47.914;22.266;2023-04-06T19:11:45;1.17;91.82
75387;DHT22;63966;47.914;22.266;2023-04-06T19:14:49;1.14;91.97
75387;DHT22;63966;47.914;22.266;2023-04-06T19:17:54;1.17;92.02
75387;DHT22;63966;47.914;22.266;2023-04-06T19:20:57;1.17;91.91
75387;DHT22;63966;47.914;22.266;2023-04-06T19:24:01;1.12;92.08
75387;DHT22;63966;47.914;22.266;2023-04-06T19:27:05;1.12;92.34
75387;DHT22;63966;47.914;22.266;2023-04-06T19:30:08;1.09;92.53
75387;DHT22;63966;47.914;22.266;2023-04-06T19:33:14;1.04;92.62